createdAt,value
2022-08-05T11:15:59.938Z,89.58
2022-08-05T11:16:57.114Z,87.96
2022-08-05T11:17:58.984Z,88.96
2022-08-05T11:18:53.886Z,88.56
2022-08-05T11:20:16.533Z,88.57
2022-08-05T11:20:54.036Z,84.09
2022-08-05T11:21:53.881Z,87.65
2022-08-05T11:22:57.987Z,91.34
2022-08-05T11:24:05.537Z,89.04
2022-08-05T11:25:16.417Z,88.14
2022-08-05T11:26:06.106Z,87.95
2022-08-05T11:26:53.997Z,89.70
2022-08-05T11:28:00.575Z,88.32
2022-08-05T11:28:54.021Z,94.48
2022-08-05T11:29:53.989Z,93.24
2022-08-05T11:30:53.929Z,95.05
2022-08-05T11:32:00.534Z,92.58
2022-08-05T11:32:54.005Z,91.49
2022-08-05T11:33:53.995Z,92.90
2022-08-05T11:34:55.180Z,91.82
2022-08-05T11:36:08.042Z,91.33
2022-08-05T11:36:54.036Z,88.32
2022-08-05T11:38:30.406Z,91.68
2022-08-05T11:38:54.283Z,90.52
2022-08-05T11:40:00.557Z,88.30
2022-08-05T11:40:58.745Z,90.89
2022-08-05T11:42:01.789Z,89.78
2022-08-05T11:42:53.970Z,92.64
2022-08-05T11:44:05.094Z,87.54
2022-08-05T11:44:54.436Z,91.74
2022-08-05T11:46:27.253Z,92.56
2022-08-05T11:47:09.579Z,86.68
2022-08-05T11:47:54.784Z,91.02
2022-08-05T11:48:54.031Z,95.50
2022-08-05T11:49:54.133Z,90.59
2022-08-05T11:50:54.047Z,92.83
2022-08-05T11:51:54.028Z,86.16
2022-08-05T11:52:57.603Z,84.13
2022-08-05T11:53:54.076Z,84.40
2022-08-05T11:54:54.871Z,84.95
2022-08-05T11:55:54.073Z,86.48
2022-08-05T11:56:54.034Z,86.77
2022-08-05T11:58:09.998Z,84.25
2022-08-05T11:58:54.092Z,82.72
2022-08-05T11:59:54.147Z,88.46
2022-08-05T12:00:54.002Z,88.65
2022-08-05T12:01:53.995Z,89.66
2022-08-05T12:02:54.152Z,89.57
2022-08-05T12:03:55.491Z,90.11
2022-08-05T12:04:59.544Z,87.30
2022-08-05T12:05:54.092Z,85.89
2022-08-05T12:06:54.108Z,86.26
2022-08-05T12:08:03.262Z,88.11
2022-08-05T12:08:54.134Z,89.28
2022-08-05T12:09:54.112Z,85.67
2022-08-05T12:10:54.028Z,87.46
2022-08-05T12:11:54.158Z,90.49
2022-08-05T12:12:58.501Z,94.51
2022-08-05T12:13:54.100Z,91.57
2022-08-05T12:14:54.053Z,90.03
2022-08-05T12:15:55.909Z,91.76
2022-08-05T12:16:54.109Z,87.29
2022-08-05T12:18:02.863Z,87.27
2022-08-05T12:18:54.122Z,91.96
2022-08-05T12:20:27.272Z,86.84
2022-08-05T12:20:54.125Z,94.42
2022-08-05T12:21:54.107Z,87.55
2022-08-05T12:22:56.931Z,91.33
2022-08-05T12:23:54.186Z,85.26
2022-08-05T12:24:54.153Z,88.22
2022-08-05T12:25:56.827Z,88.19
2022-08-05T12:26:54.121Z,87.12
2022-08-05T12:27:54.423Z,90.54
2022-08-05T12:28:54.114Z,88.33
2022-08-05T12:29:56.950Z,92.68
2022-08-05T12:30:54.113Z,84.68
2022-08-05T12:31:54.491Z,92.65
2022-08-05T12:32:56.370Z,84.81
2022-08-05T12:33:54.120Z,86.47
2022-08-05T12:34:54.211Z,89.30
2022-08-05T12:35:54.281Z,87.83
2022-08-05T12:36:54.218Z,88.09
2022-08-05T12:37:54.626Z,87.68
2022-08-05T12:38:54.346Z,86.41
2022-08-05T12:39:54.438Z,88.06
2022-08-05T12:40:54.317Z,89.34
2022-08-05T12:41:58.014Z,85.98
2022-08-05T12:42:54.565Z,93.33
2022-08-05T12:43:54.447Z,84.28
2022-08-05T12:44:54.305Z,85.32
2022-08-05T12:45:54.390Z,86.25
2022-08-05T12:46:54.392Z,92.06
2022-08-05T12:48:17.346Z,90.00
2022-08-05T12:48:54.383Z,91.76
2022-08-05T12:50:04.098Z,86.63
2022-08-05T12:50:54.314Z,88.61
2022-08-05T12:52:13.747Z,85.69
2022-08-05T12:52:54.358Z,94.29
2022-08-05T12:53:55.933Z,86.58
2022-08-05T12:54:54.473Z,91.42
2022-08-05T12:55:54.385Z,84.15
2022-08-05T12:56:54.429Z,90.50
2022-08-05T12:58:49.151Z,90.20
2022-08-05T12:59:00.970Z,85.70
2022-08-05T13:01:57.464Z,89.07
2022-08-05T13:02:01.801Z,89.49
2022-08-05T13:02:03.366Z,92.09
2022-08-05T13:02:55.701Z,91.74
2022-08-05T13:03:54.463Z,84.85
2022-08-05T13:04:54.921Z,87.45
2022-08-05T13:05:54.378Z,86.53
2022-08-05T13:06:54.458Z,88.48
2022-08-05T13:07:59.208Z,82.20
2022-08-05T13:08:54.435Z,82.73
2022-08-05T13:09:56.990Z,86.43
2022-08-05T13:10:54.466Z,90.66
2022-08-05T13:12:01.978Z,89.28
2022-08-05T13:12:58.206Z,88.62
2022-08-05T13:14:05.886Z,87.10
2022-08-05T13:15:05.179Z,83.73
2022-08-05T13:15:54.423Z,86.28
2022-08-05T13:16:54.566Z,92.22
2022-08-05T13:17:54.601Z,86.38
2022-08-05T13:18:55.249Z,87.03
2022-08-05T13:19:54.561Z,86.50
2022-08-05T13:20:54.389Z,88.00
2022-08-05T13:21:56.750Z,87.58
2022-08-05T13:22:54.568Z,92.61
2022-08-05T13:23:54.602Z,89.42
2022-08-05T13:24:58.096Z,88.50
2022-08-05T13:25:59.558Z,85.07
2022-08-05T13:26:54.600Z,84.83
2022-08-05T13:27:55.205Z,84.11
2022-08-05T13:28:54.621Z,82.38
2022-08-05T13:30:32.751Z,81.70
2022-08-05T13:30:54.642Z,83.58
2022-08-05T13:32:04.282Z,84.29
2022-08-05T13:32:54.915Z,83.30
2022-08-05T13:34:21.828Z,83.78
2022-08-05T13:34:54.625Z,87.87
2022-08-05T13:35:54.697Z,86.59
2022-08-05T13:36:54.629Z,82.56
2022-08-05T13:37:55.749Z,82.57
2022-08-05T13:38:54.721Z,81.11
2022-08-05T13:40:16.473Z,83.90
2022-08-05T13:40:54.673Z,86.70
2022-08-05T13:41:54.585Z,84.09
2022-08-05T13:42:55.507Z,91.33
2022-08-05T13:43:55.321Z,80.59
2022-08-05T13:44:54.663Z,80.62
2022-08-05T13:45:54.629Z,80.75
2022-08-05T13:47:01.742Z,80.96
2022-08-05T13:48:09.848Z,80.88
2022-08-05T13:48:57.497Z,81.93
2022-08-05T13:49:54.686Z,81.21
2022-08-05T13:50:54.770Z,79.31
2022-08-05T13:51:54.742Z,82.73
2022-08-05T13:52:54.916Z,84.08
2022-08-05T13:53:57.966Z,81.35
2022-08-05T13:54:54.746Z,79.46
2022-08-05T13:55:58.779Z,80.04
2022-08-05T13:56:54.701Z,78.29
2022-08-05T13:57:55.073Z,82.96
2022-08-05T13:58:54.660Z,83.31
2022-08-05T13:59:55.482Z,83.25
2022-08-05T14:00:54.797Z,88.33
2022-08-05T14:01:57.673Z,88.68
2022-08-05T14:02:55.168Z,81.77
2022-08-05T14:03:54.757Z,85.89
2022-08-05T14:04:54.836Z,84.18
2022-08-05T14:06:25.725Z,84.87
2022-08-05T14:07:11.921Z,86.00
2022-08-05T14:07:59.945Z,85.74
2022-08-05T14:08:54.830Z,86.95
2022-08-05T14:09:54.740Z,82.50
2022-08-05T14:10:59.817Z,83.04
2022-08-05T14:12:00.655Z,86.07
2022-08-05T14:12:54.759Z,85.42
2022-08-05T14:13:56.964Z,86.56
2022-08-05T14:14:54.723Z,83.28
2022-08-05T14:16:09.217Z,88.27
2022-08-05T14:16:55.320Z,86.04
2022-08-05T14:17:54.943Z,86.96
2022-08-05T14:18:54.789Z,83.16
2022-08-05T14:19:56.222Z,83.65
2022-08-05T14:20:55.367Z,91.48
2022-08-05T14:22:09.020Z,84.07
2022-08-05T14:22:54.804Z,84.35
2022-08-05T14:23:54.777Z,82.12
2022-08-05T14:24:54.866Z,84.91
2022-08-05T14:25:55.294Z,81.73
2022-08-05T14:27:15.567Z,84.58
2022-08-05T14:27:55.062Z,86.94
2022-08-05T14:28:54.855Z,86.01
2022-08-05T14:29:54.898Z,89.79
2022-08-05T14:30:54.848Z,87.06
2022-08-05T14:32:12.375Z,86.16
2022-08-05T14:32:55.398Z,90.58
2022-08-05T14:33:59.149Z,84.33
2022-08-05T14:34:54.833Z,90.72
2022-08-05T14:35:55.049Z,89.14
2022-08-05T14:36:54.800Z,87.56
2022-08-05T14:37:55.640Z,90.65
2022-08-05T14:38:54.895Z,89.54
2022-08-05T14:39:56.967Z,88.13
2022-08-05T14:40:54.834Z,82.95
2022-08-05T14:42:19.264Z,86.08
2022-08-05T14:42:55.301Z,91.91
2022-08-05T14:44:00.237Z,83.61
2022-08-05T14:44:54.838Z,88.77
2022-08-05T14:45:54.863Z,89.42
2022-08-05T14:46:54.886Z,84.66
2022-08-05T14:48:03.543Z,91.43
2022-08-05T14:48:54.869Z,85.95
2022-08-05T14:49:58.529Z,88.52
2022-08-05T14:50:54.903Z,83.52
2022-08-05T14:51:54.878Z,87.77
2022-08-05T14:52:58.472Z,88.53
2022-08-05T14:54:26.767Z,85.98
2022-08-05T14:54:55.000Z,87.23
2022-08-05T14:55:54.922Z,89.69
2022-08-05T14:56:54.988Z,87.67
2022-08-05T14:57:56.353Z,87.09
2022-08-05T14:58:54.938Z,87.57
2022-08-05T14:59:54.871Z,88.12
2022-08-05T15:00:58.722Z,87.95
2022-08-05T15:01:54.975Z,86.61
2022-08-05T15:02:55.099Z,87.67
2022-08-05T15:03:54.957Z,86.51
2022-08-05T15:04:54.855Z,85.55
2022-08-05T15:06:07.685Z,86.91
2022-08-05T15:06:54.954Z,87.44
2022-08-05T15:08:13.166Z,86.94
2022-08-05T15:09:01.484Z,88.23
2022-08-05T15:09:55.034Z,87.58
2022-08-05T15:10:54.993Z,87.02
2022-08-05T15:11:54.918Z,84.06
2022-08-05T15:13:00.892Z,86.83
2022-08-05T15:13:54.938Z,86.63
2022-08-05T15:14:54.934Z,88.21
2022-08-05T15:15:56.460Z,89.50
2022-08-05T15:16:54.960Z,91.51
2022-08-05T15:17:54.986Z,89.90
2022-08-05T15:18:54.955Z,88.06
2022-08-05T15:19:55.139Z,91.30
2022-08-05T15:20:54.989Z,91.40
2022-08-05T15:22:00.027Z,90.04
2022-08-05T15:22:55.222Z,92.74
2022-08-05T15:23:54.997Z,90.92
2022-08-05T15:24:54.999Z,87.99
2022-08-05T15:25:57.573Z,92.74
2022-08-05T15:26:56.070Z,90.75
2022-08-05T15:27:55.026Z,88.31
2022-08-05T15:28:55.009Z,89.81
2022-08-05T15:29:56.745Z,84.13
2022-08-05T15:30:55.017Z,85.40
2022-08-05T15:31:55.008Z,87.69
2022-08-05T15:32:55.030Z,86.93
2022-08-05T15:34:19.280Z,91.26
2022-08-05T15:34:55.048Z,92.01
2022-08-05T15:35:55.016Z,89.85
2022-08-05T15:36:55.161Z,90.94
2022-08-05T15:38:33.839Z,88.72
2022-08-05T15:40:58.547Z,86.72
2022-08-05T15:41:00.500Z,89.00
2022-08-05T15:41:03.937Z,86.25
2022-08-05T15:41:57.872Z,89.63
2022-08-05T15:42:59.763Z,89.59
2022-08-05T15:43:55.428Z,89.66
2022-08-05T15:44:55.045Z,90.02
2022-08-05T15:46:00.169Z,87.59
2022-08-05T15:46:55.781Z,88.97
2022-08-05T15:47:55.124Z,90.95
2022-08-05T15:49:00.647Z,90.47
2022-08-05T15:49:58.742Z,90.99
2022-08-05T15:50:56.347Z,90.26
2022-08-05T15:52:04.401Z,91.84
2022-08-05T15:53:03.519Z,89.27
2022-08-05T15:53:58.124Z,88.53
2022-08-05T15:54:58.067Z,88.10
2022-08-05T15:56:02.884Z,92.60
2022-08-05T15:56:58.090Z,91.15
2022-08-05T15:57:58.201Z,91.51
2022-08-05T15:58:58.141Z,90.19
2022-08-05T15:59:58.198Z,89.41
2022-08-05T16:01:11.632Z,92.81
2022-08-05T16:01:59.487Z,91.65
2022-08-05T16:02:58.145Z,91.29
2022-08-05T16:03:58.222Z,91.19
2022-08-05T16:04:58.139Z,94.21
2022-08-05T16:05:58.152Z,92.25
2022-08-05T16:06:58.122Z,90.79
2022-08-05T16:07:58.202Z,92.15
2022-08-05T16:08:58.149Z,91.78
2022-08-05T16:09:58.155Z,91.12
2022-08-05T16:10:58.154Z,92.16
2022-08-05T16:11:58.142Z,93.07
2022-08-05T16:12:58.130Z,88.02
2022-08-05T16:13:58.158Z,92.82
2022-08-05T16:14:58.192Z,90.57
2022-08-05T16:15:58.169Z,90.50
2022-08-05T16:16:58.127Z,89.50
2022-08-05T16:17:58.328Z,88.73
2022-08-05T16:18:58.134Z,91.45
2022-08-05T16:20:05.265Z,91.80
2022-08-05T16:20:58.307Z,95.87
2022-08-05T16:21:59.300Z,91.03
2022-08-05T16:22:58.205Z,94.23
2022-08-05T16:24:02.983Z,89.56
2022-08-05T16:24:58.218Z,93.49
2022-08-05T16:25:58.198Z,93.44
2022-08-05T16:26:58.191Z,88.95
2022-08-05T16:28:02.231Z,90.73
2022-08-05T16:28:58.208Z,90.66
2022-08-05T16:29:58.201Z,90.43
2022-08-05T16:30:58.280Z,91.01
2022-08-05T16:31:58.181Z,90.37
2022-08-05T16:32:58.270Z,91.93
2022-08-05T16:33:58.219Z,89.60
2022-08-05T16:34:58.955Z,90.99
2022-08-05T16:35:58.218Z,88.44
2022-08-05T16:36:58.201Z,91.61
2022-08-05T16:38:02.871Z,92.50
2022-08-05T16:38:58.173Z,88.48
2022-08-05T16:40:04.729Z,91.00
2022-08-05T16:41:00.210Z,90.00
2022-08-05T16:42:14.484Z,86.73
2022-08-05T16:42:58.212Z,89.65
2022-08-05T16:43:58.227Z,88.68
2022-08-05T16:44:58.345Z,91.04
2022-08-05T16:46:05.422Z,91.17
2022-08-05T16:46:58.207Z,91.62
2022-08-05T16:48:02.636Z,90.12
2022-08-05T16:48:58.288Z,93.37
2022-08-05T16:49:58.225Z,91.46
2022-08-05T16:50:58.290Z,91.62
2022-08-05T16:51:58.310Z,88.90
2022-08-05T16:52:58.729Z,89.63
2022-08-05T16:54:03.946Z,91.04
2022-08-05T16:54:58.230Z,95.33
2022-08-05T16:55:58.207Z,92.97
2022-08-05T16:56:58.364Z,88.97
2022-08-05T16:58:00.276Z,92.94
2022-08-05T16:58:58.302Z,92.57
2022-08-05T17:00:03.050Z,89.63
2022-08-05T17:00:58.401Z,91.46
2022-08-05T17:01:59.285Z,90.37
2022-08-05T17:02:58.447Z,91.42
2022-08-05T17:03:58.438Z,91.20
2022-08-05T17:04:58.457Z,94.03
2022-08-05T17:05:59.525Z,92.78
2022-08-05T17:07:00.477Z,91.41
2022-08-05T17:07:58.525Z,92.74
2022-08-05T17:08:58.598Z,93.99
2022-08-05T17:09:59.338Z,91.01
2022-08-05T17:10:58.632Z,93.79
2022-08-05T17:11:59.991Z,93.60
2022-08-05T17:12:58.863Z,91.71
2022-08-05T17:14:05.227Z,93.53
2022-08-05T17:14:58.737Z,93.19
2022-08-05T17:16:19.497Z,93.91
2022-08-05T17:16:58.800Z,95.52
2022-08-05T17:17:58.772Z,95.21
2022-08-05T17:18:58.695Z,94.78
2022-08-05T17:19:58.702Z,95.45
2022-08-05T17:20:58.709Z,93.45
2022-08-05T17:21:58.772Z,88.55
2022-08-05T17:22:58.844Z,89.54
2022-08-05T17:24:05.988Z,89.63
2022-08-05T17:25:00.301Z,92.01
2022-08-05T17:25:58.756Z,93.40
2022-08-05T17:26:58.791Z,93.46
2022-08-05T17:27:58.799Z,93.16
2022-08-05T17:28:58.766Z,91.78
2022-08-05T17:30:00.685Z,93.55
2022-08-05T17:30:58.770Z,89.26
2022-08-05T17:31:59.378Z,90.65
2022-08-05T17:32:58.835Z,90.33
2022-08-05T17:33:58.799Z,92.93
2022-08-05T17:34:58.823Z,90.46
2022-08-05T17:36:08.809Z,92.53
2022-08-05T17:36:58.760Z,93.94
2022-08-05T17:38:00.498Z,92.11
2022-08-05T17:38:58.851Z,96.25
2022-08-05T17:40:00.166Z,88.98
2022-08-05T17:40:58.797Z,92.17
2022-08-05T17:42:19.984Z,91.30
2022-08-05T17:42:58.809Z,95.33
2022-08-05T17:43:58.863Z,93.88
2022-08-05T17:44:58.833Z,93.79
2022-08-05T17:45:58.727Z,94.35
2022-08-05T17:46:58.894Z,95.74
2022-08-05T17:47:58.893Z,94.67
2022-08-05T17:48:58.838Z,97.27
2022-08-05T17:50:03.741Z,98.42
2022-08-05T17:50:58.840Z,96.75
2022-08-05T17:51:58.837Z,96.42
2022-08-05T17:52:59.044Z,96.18
2022-08-05T17:53:58.918Z,98.57
2022-08-05T17:54:58.854Z,94.95
2022-08-05T17:55:58.857Z,95.42
2022-08-05T17:56:58.808Z,94.83
